createdAt,value
2023-01-27T00:01:19.824Z,79.93
2023-01-27T00:06:23.821Z,80.08
2023-01-27T00:11:46.083Z,80.88
2023-01-27T00:16:49.536Z,79.86
2023-01-27T00:22:11.309Z,80.31
2023-01-27T00:27:14.317Z,80.03
2023-01-27T00:32:36.124Z,79.41
2023-01-27T00:37:39.195Z,80.37
2023-01-27T00:42:45.125Z,79.61
2023-01-27T00:47:52.632Z,79.95
2023-01-27T00:52:59.355Z,79.90
2023-01-27T00:58:02.791Z,79.94
2023-01-27T01:03:06.354Z,79.67
2023-01-27T01:08:10.021Z,79.94
2023-01-27T01:13:14.150Z,79.87
2023-01-27T01:18:17.803Z,79.09
2023-01-27T01:23:21.416Z,79.69
2023-01-27T01:28:26.206Z,80.25
2023-01-27T01:33:29.782Z,80.34
2023-01-27T01:38:34.610Z,80.55
2023-01-27T01:43:38.624Z,80.52
2023-01-27T01:48:44.382Z,82.40
2023-01-27T01:53:54.040Z,82.65
2023-01-27T01:59:02.833Z,82.98
2023-01-27T02:04:11.854Z,83.53
2023-01-27T02:09:21.875Z,84.20
2023-01-27T02:14:25.672Z,85.04
2023-01-27T02:19:42.565Z,85.12
2023-01-27T02:24:51.001Z,85.50
2023-01-27T02:29:54.266Z,85.79
2023-01-27T02:34:57.917Z,86.26
2023-01-27T02:40:03.465Z,86.31
2023-01-27T02:45:07.669Z,85.85
2023-01-27T02:50:12.308Z,86.07
2023-01-27T02:55:15.963Z,86.69
2023-01-27T03:00:19.477Z,87.20
2023-01-27T03:05:23.733Z,86.71
2023-01-27T03:10:27.342Z,87.07
2023-01-27T03:15:48.709Z,87.05
2023-01-27T03:20:52.525Z,86.53
2023-01-27T03:25:55.769Z,86.98
2023-01-27T03:31:19.843Z,87.37
2023-01-27T03:36:47.880Z,86.29
2023-01-27T03:42:12.549Z,86.49
2023-01-27T03:47:16.865Z,86.75
2023-01-27T03:52:19.866Z,87.35
2023-01-27T03:57:23.419Z,87.88
2023-01-27T04:02:44.892Z,88.42
2023-01-27T04:07:48.379Z,88.54
2023-01-27T04:12:51.455Z,88.88
2023-01-27T04:17:56.178Z,88.62
2023-01-27T04:22:59.488Z,88.79
2023-01-27T04:28:04.237Z,88.42
2023-01-27T04:33:10.817Z,88.88
2023-01-27T04:38:14.889Z,88.98
2023-01-27T04:43:18.796Z,88.91
2023-01-27T04:48:24.308Z,89.39
2023-01-27T04:53:27.781Z,89.52
2023-01-27T04:58:31.858Z,89.66
2023-01-27T05:03:35.098Z,89.72
2023-01-27T05:08:39.015Z,89.55
2023-01-27T05:13:42.697Z,89.40
2023-01-27T05:18:47.866Z,89.06
2023-01-27T05:23:51.777Z,89.03
2023-01-27T05:28:57.732Z,88.05
2023-01-27T05:34:02.841Z,87.91
2023-01-27T05:39:07.877Z,88.17
2023-01-27T05:44:14.245Z,88.44
2023-01-27T05:49:17.739Z,88.77
2023-01-27T05:54:21.371Z,89.53
2023-01-27T05:59:25.156Z,90.09
2023-01-27T06:04:28.405Z,90.51
2023-01-27T06:09:31.494Z,90.84
2023-01-27T06:14:34.527Z,91.33
2023-01-27T06:19:38.107Z,91.29
2023-01-27T06:24:41.995Z,91.37
2023-01-27T06:29:45.223Z,91.48
2023-01-27T06:34:48.236Z,91.55
2023-01-27T06:39:51.376Z,91.47
2023-01-27T06:44:56.194Z,91.57
2023-01-27T06:49:59.177Z,91.14
2023-01-27T06:55:03.044Z,91.74
2023-01-27T07:00:07.718Z,91.53
2023-01-27T07:05:11.899Z,91.95
2023-01-27T07:10:16.174Z,93.10
2023-01-27T07:15:19.748Z,99.03
2023-01-27T07:20:23.812Z,90.38
2023-01-27T07:25:27.656Z,72.42
2023-01-27T07:30:32.089Z,57.21
2023-01-27T07:35:36.562Z,52.28
2023-01-27T07:40:40.217Z,54.32
2023-01-27T07:45:43.909Z,54.23
2023-01-27T07:50:47.055Z,50.51
2023-01-27T07:55:50.335Z,48.37
2023-01-27T08:00:53.357Z,45.25
2023-01-27T08:05:56.695Z,40.72
2023-01-27T08:11:01.461Z,44.21
2023-01-27T08:16:07.272Z,38.93
2023-01-27T08:21:12.931Z,42.55
2023-01-27T08:26:16.088Z,36.21
2023-01-27T08:31:19.797Z,42.59
2023-01-27T08:36:24.509Z,35.27
2023-01-27T08:41:28.298Z,37.14
2023-01-27T08:46:31.836Z,36.65
2023-01-27T08:51:35.570Z,36.59
2023-01-27T08:56:39.333Z,36.96
2023-01-27T09:01:42.519Z,36.82
2023-01-27T09:06:48.555Z,37.90
2023-01-27T09:11:52.614Z,41.56
2023-01-27T09:16:56.092Z,45.96
2023-01-27T09:21:59.129Z,45.12
2023-01-27T09:27:02.291Z,46.72
2023-01-27T09:32:06.910Z,40.91
2023-01-27T09:37:13.066Z,43.18
2023-01-27T09:42:16.059Z,40.93
2023-01-27T09:47:42.487Z,38.63
2023-01-27T09:53:18.747Z,39.20
2023-01-27T09:58:42.807Z,38.59
2023-01-27T10:04:08.655Z,39.68
2023-01-27T10:09:25.166Z,39.44
2023-01-27T10:14:52.450Z,42.40
2023-01-27T10:20:07.267Z,46.16
2023-01-27T10:25:25.716Z,47.87
2023-01-27T10:30:37.568Z,51.06
2023-01-27T10:35:46.977Z,52.57
2023-01-27T10:40:53.042Z,51.35
2023-01-27T10:46:07.898Z,52.26
2023-01-27T10:51:23.325Z,53.47
2023-01-27T10:56:45.323Z,54.72
2023-01-27T11:01:56.592Z,60.04
2023-01-27T11:07:01.042Z,56.52
2023-01-27T11:12:10.845Z,59.28
2023-01-27T11:17:39.280Z,58.14
2023-01-27T11:22:51.726Z,61.75
2023-01-27T11:28:07.446Z,64.43
2023-01-27T11:33:30.905Z,66.72
2023-01-27T11:38:37.302Z,65.20
2023-01-27T11:43:40.593Z,65.49
2023-01-27T11:48:48.946Z,66.21
2023-01-27T11:54:23.968Z,65.39
2023-01-27T11:59:38.172Z,64.37
2023-01-27T12:05:00.200Z,61.72
2023-01-27T12:10:22.109Z,59.86
2023-01-27T12:15:28.486Z,60.93
2023-01-27T12:20:35.228Z,63.05
2023-01-27T12:25:48.413Z,60.58
2023-01-27T12:30:56.449Z,62.24
2023-01-27T12:36:12.525Z,60.19
2023-01-27T12:41:23.864Z,60.80
2023-01-27T12:46:29.001Z,59.52
2023-01-27T12:51:42.381Z,54.40
2023-01-27T12:56:45.753Z,59.19
2023-01-27T13:02:03.768Z,56.60
2023-01-27T13:07:17.181Z,53.96
2023-01-27T13:12:26.034Z,52.94
2023-01-27T13:17:38.327Z,51.65
2023-01-27T13:22:45.957Z,53.94
2023-01-27T13:27:50.538Z,57.24
2023-01-27T13:32:56.740Z,57.25
2023-01-27T13:38:08.579Z,59.47
2023-01-27T13:43:20.218Z,57.38
2023-01-27T13:48:49.288Z,56.94
2023-01-27T13:54:00.752Z,53.85
2023-01-27T13:59:48.909Z,47.59
2023-01-27T14:05:13.363Z,48.62
2023-01-27T14:10:22.677Z,46.98
2023-01-27T14:15:43.718Z,43.74
2023-01-27T14:21:08.593Z,44.00
2023-01-27T14:26:17.744Z,40.44
2023-01-27T14:31:25.984Z,46.86
2023-01-27T14:36:29.838Z,52.39
2023-01-27T14:41:50.150Z,51.81
2023-01-27T14:46:56.053Z,55.94
2023-01-27T14:52:37.728Z,57.05
2023-01-27T14:57:56.993Z,51.99
2023-01-27T15:03:18.414Z,47.84
2023-01-27T15:08:51.594Z,55.50
2023-01-27T15:14:33.482Z,58.87
2023-01-27T15:19:57.574Z,63.25
2023-01-27T15:25:00.641Z,66.93
2023-01-27T15:30:21.004Z,68.07
2023-01-27T15:35:33.724Z,68.81
2023-01-27T15:41:04.989Z,68.81
2023-01-27T15:46:30.092Z,69.08
2023-01-27T15:51:37.117Z,68.50
2023-01-27T15:56:50.906Z,70.76
2023-01-27T16:02:18.025Z,72.79
2023-01-27T16:07:29.676Z,75.57
2023-01-27T16:12:45.278Z,77.45
2023-01-27T16:18:25.053Z,80.83
2023-01-27T16:23:58.099Z,82.59
2023-01-27T16:29:13.204Z,83.87
2023-01-27T16:34:47.135Z,85.17
2023-01-27T16:39:59.663Z,86.58
2023-01-27T16:45:17.173Z,86.85
2023-01-27T16:50:32.425Z,85.66
2023-01-27T16:55:35.642Z,86.95
2023-01-27T17:00:39.654Z,86.96
2023-01-27T17:21:39.409Z,90.02
2023-01-27T17:26:46.627Z,90.67
2023-01-27T17:31:51.475Z,90.86
2023-01-27T17:37:13.556Z,90.74
2023-01-27T17:42:18.761Z,90.75
2023-01-27T17:47:22.916Z,91.00
2023-01-27T17:52:27.932Z,91.58
2023-01-27T17:57:36.527Z,91.60
2023-01-27T18:02:48.748Z,92.00
2023-01-27T18:07:52.443Z,91.49
2023-01-27T18:12:56.608Z,91.53
2023-01-27T18:18:02.440Z,91.45
2023-01-27T18:23:14.248Z,91.04
2023-01-27T18:28:18.540Z,91.20
2023-01-27T18:33:21.795Z,92.33
2023-01-27T18:38:35.870Z,92.02
2023-01-27T18:43:39.084Z,92.41
2023-01-27T18:48:42.607Z,92.63
2023-01-27T18:53:45.967Z,93.36
2023-01-27T18:58:49.910Z,93.21
2023-01-27T19:03:57.475Z,93.41
2023-01-27T19:09:01.121Z,93.94
2023-01-27T19:14:04.806Z,94.60
2023-01-27T19:19:11.843Z,95.41
2023-01-27T19:24:15.652Z,95.21
2023-01-27T19:29:19.262Z,95.55
2023-01-27T19:34:22.860Z,95.02
2023-01-27T19:39:27.115Z,95.40
2023-01-27T19:44:30.791Z,96.06
2023-01-27T19:49:33.847Z,95.65
2023-01-27T19:54:37.546Z,95.70
2023-01-27T19:59:41.227Z,95.61
2023-01-27T20:04:44.337Z,95.68
2023-01-27T20:09:47.781Z,95.97
2023-01-27T20:14:51.497Z,95.82
2023-01-27T20:19:54.567Z,95.58
2023-01-27T20:24:58.311Z,93.92
2023-01-27T20:30:01.827Z,94.69
2023-01-27T20:35:05.740Z,94.16
2023-01-27T20:40:12.788Z,94.88
2023-01-27T20:45:16.543Z,95.26
2023-01-27T20:50:21.514Z,95.33
2023-01-27T20:55:25.441Z,95.74
2023-01-27T21:00:28.765Z,95.96
2023-01-27T21:05:34.590Z,95.83
2023-01-27T21:10:37.681Z,95.80
2023-01-27T21:15:47.990Z,95.98
2023-01-27T21:20:56.791Z,95.46
2023-01-27T21:26:12.112Z,96.12
2023-01-27T21:31:17.565Z,96.72
2023-01-27T21:36:21.842Z,97.09
2023-01-27T21:41:45.529Z,98.09
2023-01-27T21:46:49.301Z,98.25
2023-01-27T21:51:52.816Z,98.92
2023-01-27T21:56:55.945Z,98.63
2023-01-27T22:01:59.059Z,97.91
2023-01-27T22:07:02.143Z,97.47
2023-01-27T22:12:07.293Z,97.19
2023-01-27T22:17:10.568Z,96.14
2023-01-27T22:22:14.648Z,95.76
2023-01-27T22:27:17.800Z,94.87
2023-01-27T22:32:20.969Z,93.66
2023-01-27T22:37:24.522Z,92.90
2023-01-27T22:42:28.510Z,92.26
2023-01-27T22:47:31.853Z,91.98
2023-01-27T22:52:39.907Z,91.53
2023-01-27T22:57:45.239Z,91.33
2023-01-27T23:02:49.187Z,91.41
2023-01-27T23:07:52.319Z,90.36
2023-01-27T23:12:55.910Z,90.12
2023-01-27T23:17:58.971Z,90.10
2023-01-27T23:23:02.525Z,90.35
2023-01-27T23:28:05.576Z,90.81
2023-01-27T23:33:09.081Z,89.34
2023-01-27T23:38:30.263Z,90.30
2023-01-27T23:43:35.119Z,90.91
2023-01-27T23:48:38.422Z,91.87
2023-01-27T23:53:41.484Z,91.93
2023-01-27T23:58:45.348Z,92.85
